createdAt,value
2018-05-06T00:00:46.038Z,14.37
2018-05-06T00:03:13.545Z,14.95
2018-05-06T00:05:41.085Z,18.07
2018-05-06T00:08:08.665Z,15.70
2018-05-06T00:10:36.207Z,17.60
2018-05-06T00:13:03.737Z,19.73
2018-05-06T00:15:31.284Z,14.23
2018-05-06T00:17:58.802Z,16.13
2018-05-06T00:20:26.346Z,16.27
2018-05-06T00:22:54.594Z,19.20
2018-05-06T00:25:22.141Z,18.57
2018-05-06T00:27:49.649Z,17.73
2018-05-06T00:30:17.374Z,18.97
2018-05-06T00:32:44.893Z,14.17
2018-05-06T00:35:12.465Z,19.93
2018-05-06T00:37:39.973Z,19.17
2018-05-06T00:40:07.509Z,17.90
2018-05-06T00:42:35.013Z,17.70
2018-05-06T00:45:02.565Z,18.17
2018-05-06T00:47:30.465Z,18.10
2018-05-06T00:49:58.025Z,15.73
2018-05-06T00:52:25.541Z,22.30
2018-05-06T00:54:53.482Z,15.27
2018-05-06T00:57:21.200Z,17.17
2018-05-06T00:59:48.744Z,17.60
2018-05-06T01:02:16.307Z,23.10
2018-05-06T01:04:43.966Z,17.77
2018-05-06T01:07:11.527Z,16.50
2018-05-06T01:09:39.050Z,20.00
2018-05-06T01:12:06.604Z,18.50
2018-05-06T01:14:34.521Z,16.07
2018-05-06T01:17:02.065Z,17.93
2018-05-06T01:23:00.409Z,16.83
2018-05-06T01:25:27.973Z,18.63
2018-05-06T01:27:55.497Z,19.63
2018-05-06T01:30:23.039Z,19.67
2018-05-06T01:32:50.548Z,19.90
2018-05-06T01:35:18.131Z,20.63
2018-05-06T01:37:45.651Z,17.97
2018-05-06T01:40:13.721Z,30.20
2018-05-06T01:42:42.174Z,18.13
2018-05-06T01:45:09.696Z,22.03
2018-05-06T01:47:37.228Z,18.00
2018-05-06T01:50:04.737Z,17.40
2018-05-06T01:52:32.566Z,21.07
2018-05-06T01:55:00.078Z,19.27
2018-05-06T01:57:28.035Z,26.37
2018-05-06T01:59:56.263Z,18.40
2018-05-06T02:02:23.801Z,22.10
2018-05-06T02:04:55.014Z,20.77
2018-05-06T02:07:23.022Z,22.97
2018-05-06T02:10:42.213Z,23.70
2018-05-06T02:13:09.740Z,19.20
2018-05-06T02:15:57.957Z,20.37
2018-05-06T02:22:37.445Z,31.27
2018-05-06T02:25:04.950Z,19.30
2018-05-06T02:27:32.643Z,23.50
2018-05-06T02:30:00.164Z,24.13
2018-05-06T02:32:27.709Z,20.60
2018-05-06T02:34:55.225Z,23.67
2018-05-06T02:37:22.795Z,22.60
2018-05-06T02:39:50.443Z,21.40
2018-05-06T02:42:18.305Z,18.43
2018-05-06T02:44:45.830Z,19.57
2018-05-06T02:47:13.825Z,19.00
2018-05-06T02:49:41.345Z,18.00
2018-05-06T02:52:09.342Z,17.33
2018-05-06T02:54:36.870Z,17.47
2018-05-06T02:57:04.860Z,17.37
2018-05-06T02:59:32.401Z,19.07
2018-05-06T03:01:59.935Z,16.73
2018-05-06T03:04:27.446Z,18.37
2018-05-06T03:06:54.976Z,22.90
2018-05-06T03:09:22.513Z,14.23
2018-05-06T03:11:50.047Z,13.40
2018-05-06T03:14:17.551Z,14.70
2018-05-06T03:16:45.096Z,15.13
2018-05-06T03:19:12.648Z,15.43
2018-05-06T03:21:40.197Z,14.37
2018-05-06T03:24:07.717Z,16.23
2018-05-06T03:26:35.477Z,16.97
2018-05-06T03:29:03.005Z,15.00
2018-05-06T03:31:30.659Z,14.47
2018-05-06T03:33:58.162Z,15.40
2018-05-06T03:36:25.784Z,16.80
2018-05-06T03:38:53.380Z,17.23
2018-05-06T03:41:21.292Z,20.30
2018-05-06T03:43:48.836Z,16.63
2018-05-06T03:46:16.403Z,23.23
2018-05-06T03:48:43.962Z,16.47
2018-05-06T03:51:11.463Z,14.07
2018-05-06T03:53:39.019Z,18.90
2018-05-06T03:59:29.434Z,22.97
2018-05-06T04:05:04.650Z,14.53
2018-05-06T04:07:32.210Z,15.37
2018-05-06T04:09:59.724Z,14.13
2018-05-06T04:12:27.241Z,13.93
2018-05-06T04:14:54.786Z,16.47
2018-05-06T04:17:22.314Z,12.60
2018-05-06T04:19:49.974Z,14.73
2018-05-06T04:22:17.501Z,20.87
2018-05-06T04:24:45.056Z,13.93
2018-05-06T04:27:12.593Z,16.80
2018-05-06T04:29:40.213Z,12.73
2018-05-06T04:32:07.735Z,13.60
2018-05-06T04:34:35.269Z,24.93
2018-05-06T04:37:02.896Z,15.67
2018-05-06T04:39:30.629Z,14.70
2018-05-06T04:41:58.142Z,13.13
2018-05-06T04:44:26.085Z,16.03
2018-05-06T04:46:53.716Z,18.00
2018-05-06T04:49:21.471Z,16.67
2018-05-06T04:51:48.997Z,27.73
2018-05-06T04:54:16.577Z,21.13
2018-05-06T04:56:44.085Z,22.20
2018-05-06T04:59:11.625Z,20.83
2018-05-06T05:01:39.353Z,22.73
2018-05-06T05:04:06.901Z,18.47
2018-05-06T05:06:34.422Z,22.60
2018-05-06T05:09:02.127Z,19.10
2018-05-06T05:11:29.662Z,22.73
2018-05-06T05:13:57.213Z,21.37
2018-05-06T05:16:24.899Z,18.03
2018-05-06T05:18:52.459Z,19.60
2018-05-06T05:21:20.013Z,21.10
2018-05-06T05:23:47.545Z,18.53
2018-05-06T05:26:15.098Z,18.62
2018-05-06T05:28:42.605Z,19.55
2018-05-06T05:31:10.269Z,17.60
2018-05-06T05:33:37.810Z,19.63
2018-05-06T05:36:05.369Z,18.12
2018-05-06T05:38:33.292Z,17.70
2018-05-06T05:41:00.848Z,20.83
2018-05-06T05:43:28.361Z,15.65
2018-05-06T05:45:55.907Z,16.52
2018-05-06T05:48:23.437Z,14.57
2018-05-06T05:50:51.106Z,16.92
2018-05-06T05:53:18.621Z,14.30
2018-05-06T05:55:46.619Z,20.17
2018-05-06T05:58:14.277Z,16.85
2018-05-06T06:00:41.929Z,16.48
2018-05-06T06:03:09.450Z,16.87
2018-05-06T06:05:37.389Z,14.40
2018-05-06T06:08:04.897Z,16.52
2018-05-06T06:10:32.437Z,19.83
2018-05-06T06:13:00.357Z,16.27
2018-05-06T06:15:27.929Z,21.45
2018-05-06T06:17:55.452Z,16.30
2018-05-06T06:20:23.085Z,16.05
2018-05-06T06:22:50.604Z,16.00
2018-05-06T06:25:18.154Z,21.17
2018-05-06T06:27:45.661Z,17.52
2018-05-06T06:30:13.209Z,20.88
2018-05-06T06:32:40.888Z,17.42
2018-05-06T06:35:08.751Z,19.73
2018-05-06T06:37:36.557Z,17.75
2018-05-06T06:40:04.482Z,18.33
2018-05-06T06:42:32.002Z,17.73
2018-05-06T06:44:59.641Z,16.87
2018-05-06T06:47:27.543Z,20.65
2018-05-06T06:49:55.097Z,19.08
2018-05-06T06:52:22.775Z,18.70
2018-05-06T06:54:50.320Z,21.12
2018-05-06T06:57:17.821Z,18.30
2018-05-06T06:59:45.377Z,20.17
2018-05-06T07:02:13.004Z,21.27
2018-05-06T07:04:40.522Z,16.75
2018-05-06T07:07:08.062Z,18.42
2018-05-06T07:09:35.844Z,18.48
2018-05-06T07:12:03.388Z,17.67
2018-05-06T07:14:30.947Z,18.05
2018-05-06T07:16:58.885Z,17.58
2018-05-06T07:19:26.396Z,19.60
2018-05-06T07:21:54.057Z,19.10
2018-05-06T07:24:21.581Z,15.70
2018-05-06T07:26:49.138Z,18.65
2018-05-06T07:29:16.711Z,17.62
2018-05-06T07:31:44.732Z,18.77
2018-05-06T07:34:12.237Z,16.27
2018-05-06T07:36:39.769Z,15.60
2018-05-06T07:39:07.289Z,16.37
2018-05-06T07:41:34.964Z,18.75
2018-05-06T07:44:02.471Z,16.08
2018-05-06T07:46:30.234Z,15.93
2018-05-06T07:48:57.787Z,16.45
2018-05-06T07:51:25.316Z,14.45
2018-05-06T07:53:53.022Z,14.85
2018-05-06T07:56:20.581Z,16.20
2018-05-06T07:58:48.178Z,17.40
2018-05-06T08:01:15.757Z,12.98
2018-05-06T08:03:43.264Z,14.07
2018-05-06T08:06:10.808Z,15.45
2018-05-06T08:08:38.309Z,11.07
2018-05-06T08:11:05.857Z,14.18
2018-05-06T08:13:33.369Z,12.00
2018-05-06T08:16:01.119Z,11.10
2018-05-06T08:18:28.975Z,11.88
2018-05-06T08:20:56.578Z,15.43
2018-05-06T08:23:24.084Z,11.57
2018-05-06T08:25:51.736Z,9.70
2018-05-06T08:28:19.818Z,15.10
2018-05-06T08:30:47.339Z,10.18
2018-05-06T08:33:15.337Z,11.40
2018-05-06T08:35:42.854Z,10.52
2018-05-06T08:38:10.795Z,10.57
2018-05-06T08:40:38.296Z,9.70
2018-05-06T08:43:05.962Z,10.82
2018-05-06T08:45:33.474Z,8.88
2018-05-06T08:48:01.010Z,9.20
2018-05-06T08:50:28.519Z,10.25
2018-05-06T08:52:56.091Z,10.35
2018-05-06T08:55:23.651Z,6.15
2018-05-06T08:57:51.346Z,6.60
2018-05-06T09:00:18.856Z,7.05
2018-05-06T09:02:46.386Z,10.50
2018-05-06T09:05:13.893Z,7.60
2018-05-06T09:07:41.543Z,7.07
2018-05-06T09:10:09.199Z,6.60
2018-05-06T09:12:36.828Z,5.87
2018-05-06T09:15:04.501Z,5.03
2018-05-06T09:17:32.038Z,6.05
2018-05-06T09:19:59.546Z,5.75
2018-05-06T09:22:27.269Z,6.50
2018-05-06T09:24:54.782Z,9.18
2018-05-06T09:27:22.304Z,6.85
2018-05-06T09:29:49.848Z,5.35
2018-05-06T09:32:17.714Z,7.65
2018-05-06T09:34:45.253Z,4.82
2018-05-06T09:37:12.797Z,5.68
2018-05-06T09:39:40.299Z,5.32
2018-05-06T09:42:07.937Z,6.62
2018-05-06T09:44:35.595Z,10.90
2018-05-06T09:47:03.137Z,4.30
2018-05-06T09:49:30.632Z,6.40
2018-05-06T09:51:58.379Z,6.82
2018-05-06T09:54:25.886Z,6.82
2018-05-06T09:56:53.889Z,6.10
2018-05-06T09:59:21.388Z,5.25
2018-05-06T10:01:48.913Z,7.25
2018-05-06T10:04:16.456Z,6.15
2018-05-06T10:06:43.956Z,4.05
2018-05-06T10:09:11.485Z,4.03
2018-05-06T10:11:38.987Z,3.87
2018-05-06T10:14:06.670Z,3.97
2018-05-06T10:16:34.339Z,6.07
2018-05-06T10:19:01.881Z,7.05
2018-05-06T10:21:29.392Z,4.68
2018-05-06T10:23:57.011Z,5.32
2018-05-06T10:26:24.513Z,2.62
2018-05-06T10:28:52.047Z,4.10
2018-05-06T10:31:19.588Z,4.40
2018-05-06T10:33:47.113Z,3.12
2018-05-06T10:36:14.612Z,6.70
2018-05-06T10:38:42.229Z,6.50
2018-05-06T10:41:09.900Z,3.45
2018-05-06T10:43:37.433Z,5.10
2018-05-06T10:46:04.953Z,3.90
2018-05-06T10:48:32.504Z,3.62
2018-05-06T10:51:00.137Z,4.47
2018-05-06T10:53:27.813Z,3.62
2018-05-06T10:55:55.330Z,1.67
2018-05-06T10:58:22.880Z,3.05
2018-05-06T11:00:50.562Z,2.37
2018-05-06T11:03:18.103Z,3.37
2018-05-06T11:05:45.656Z,2.08
2018-05-06T11:08:13.190Z,3.10
2018-05-06T11:10:41.104Z,4.25
2018-05-06T11:13:08.852Z,6.90
2018-05-06T11:15:36.393Z,2.40
2018-05-06T11:18:03.949Z,4.90
2018-05-06T11:20:31.608Z,1.65
2018-05-06T11:22:59.233Z,1.75
2018-05-06T11:25:26.937Z,3.83
2018-05-06T11:27:54.599Z,1.45
2018-05-06T11:30:22.251Z,2.85
2018-05-06T11:32:49.756Z,4.05
2018-05-06T11:35:17.281Z,2.28
2018-05-06T11:37:44.833Z,2.83
2018-05-06T11:40:12.532Z,4.10
2018-05-06T11:42:40.225Z,4.15
2018-05-06T11:45:07.777Z,3.15
2018-05-06T11:47:35.450Z,2.37
2018-05-06T11:50:03.127Z,4.12
2018-05-06T11:52:30.641Z,3.28
2018-05-06T11:54:58.665Z,2.95
2018-05-06T11:57:26.160Z,1.80
2018-05-06T11:59:54.091Z,2.35
2018-05-06T12:02:21.629Z,4.87
2018-05-06T12:04:49.164Z,2.60
2018-05-06T12:07:16.672Z,4.18
2018-05-06T12:09:44.197Z,1.67
2018-05-06T12:12:11.716Z,3.00
2018-05-06T12:14:39.296Z,2.55
2018-05-06T12:17:06.973Z,2.03
2018-05-06T12:19:34.514Z,4.25
2018-05-06T12:22:02.025Z,3.42
2018-05-06T12:24:29.579Z,3.08
2018-05-06T12:26:57.086Z,2.15
2018-05-06T12:29:24.615Z,1.60
2018-05-06T12:31:52.120Z,3.95
2018-05-06T12:34:19.751Z,1.75
2018-05-06T12:36:47.393Z,6.05
2018-05-06T12:39:14.936Z,1.67
2018-05-06T12:41:42.852Z,4.55
2018-05-06T12:44:10.361Z,2.40
2018-05-06T12:46:37.900Z,3.28
2018-05-06T12:49:05.418Z,2.30
2018-05-06T12:51:33.063Z,1.67
2018-05-06T12:54:00.603Z,2.10
2018-05-06T12:56:28.179Z,1.33
2018-05-06T12:58:55.822Z,4.43
2018-05-06T13:01:23.468Z,2.92
2018-05-06T13:03:51.148Z,5.85
2018-05-06T13:06:18.711Z,1.35
2018-05-06T13:08:46.228Z,3.15
2018-05-06T13:11:13.786Z,5.43
2018-05-06T13:13:41.326Z,1.87
2018-05-06T13:16:08.870Z,3.30
2018-05-06T13:18:36.372Z,5.32
2018-05-06T13:21:03.934Z,4.40
2018-05-06T13:23:31.439Z,6.07
2018-05-06T13:25:58.981Z,4.57
2018-05-06T13:28:26.502Z,2.15
2018-05-06T13:30:54.069Z,2.62
2018-05-06T13:33:21.580Z,5.00
2018-05-06T13:35:49.116Z,5.15
2018-05-06T13:38:16.849Z,2.70
2018-05-06T13:40:44.388Z,2.70
2018-05-06T13:43:11.898Z,2.97
2018-05-06T13:45:39.832Z,3.80
2018-05-06T13:48:07.348Z,2.40
2018-05-06T13:50:34.883Z,4.20
2018-05-06T13:53:02.785Z,2.95
2018-05-06T13:55:30.367Z,4.00
2018-05-06T13:57:57.972Z,4.62
2018-05-06T14:00:25.501Z,4.50
2018-05-06T14:02:53.004Z,2.60
2018-05-06T14:05:20.766Z,1.25
2018-05-06T14:07:48.415Z,3.10
2018-05-06T14:10:15.921Z,1.40
2018-05-06T14:12:43.548Z,1.80
2018-05-06T14:15:11.062Z,1.98
2018-05-06T14:17:38.656Z,5.68
2018-05-06T14:20:06.157Z,3.87
2018-05-06T14:22:34.141Z,2.80
2018-05-06T14:25:01.646Z,4.25
2018-05-06T14:27:29.172Z,2.15
2018-05-06T14:29:56.709Z,2.03
2018-05-06T14:32:24.265Z,3.33
2018-05-06T14:34:52.305Z,1.55
2018-05-06T14:37:20.125Z,3.92
2018-05-06T14:39:47.658Z,2.90
2018-05-06T14:42:15.213Z,1.55
2018-05-06T14:44:42.744Z,1.45
2018-05-06T14:47:22.231Z,4.93
2018-05-06T14:49:49.741Z,1.77
2018-05-06T14:52:17.872Z,3.30
2018-05-06T14:54:45.409Z,1.50
2018-05-06T14:57:13.067Z,1.85
2018-05-06T14:59:40.566Z,2.92
2018-05-06T15:02:08.124Z,1.52
2018-05-06T15:04:35.661Z,3.08
2018-05-06T15:07:03.320Z,4.03
2018-05-06T15:09:30.826Z,2.10
2018-05-06T15:11:58.337Z,6.15
2018-05-06T15:14:35.732Z,2.65
2018-05-06T15:17:03.645Z,7.30
2018-05-06T15:19:31.212Z,3.95
2018-05-06T15:21:59.069Z,3.17
2018-05-06T15:24:26.618Z,1.27
2018-05-06T15:26:54.157Z,1.95
2018-05-06T15:29:21.717Z,2.05
2018-05-06T15:31:49.229Z,1.83
2018-05-06T15:34:16.774Z,2.83
2018-05-06T15:36:44.294Z,2.37
2018-05-06T15:39:11.881Z,5.15
2018-05-06T15:41:39.400Z,4.65
2018-05-06T15:44:07.008Z,1.10
2018-05-06T15:46:34.521Z,2.05
2018-05-06T15:49:02.073Z,1.67
2018-05-06T15:51:29.589Z,2.62
2018-05-06T15:53:57.131Z,2.37
2018-05-06T15:56:24.699Z,0.65
2018-05-06T15:58:52.251Z,3.28
2018-05-06T16:01:19.772Z,2.33
2018-05-06T16:03:59.081Z,4.45
2018-05-06T16:06:26.614Z,0.80
2018-05-06T16:08:54.629Z,1.62
2018-05-06T16:11:22.149Z,3.37
2018-05-06T16:13:49.753Z,2.65
2018-05-06T16:16:17.265Z,1.30
2018-05-06T16:18:45.193Z,1.40
2018-05-06T16:21:12.711Z,3.03
2018-05-06T16:23:40.257Z,1.70
2018-05-06T16:26:07.810Z,4.62
2018-05-06T16:28:35.474Z,5.00
2018-05-06T16:31:03.018Z,3.58
2018-05-06T16:33:30.921Z,1.87
2018-05-06T16:35:58.454Z,3.30
2018-05-06T16:38:25.968Z,2.12
2018-05-06T16:40:53.517Z,2.47
2018-05-06T16:43:21.027Z,2.22
2018-05-06T16:45:48.584Z,0.90
2018-05-06T16:48:16.136Z,3.70
2018-05-06T16:50:44.049Z,0.80
2018-05-06T16:53:11.562Z,2.05
2018-05-06T16:55:39.234Z,3.40
2018-05-06T16:58:06.797Z,3.72
2018-05-06T17:00:34.320Z,0.90
2018-05-06T17:03:01.840Z,0.80
2018-05-06T17:05:29.370Z,0.68
2018-05-06T17:07:56.894Z,6.07
2018-05-06T17:10:24.479Z,2.75
2018-05-06T17:12:52.154Z,0.98
2018-05-06T17:15:19.673Z,1.00
2018-05-06T17:17:47.232Z,3.17
2018-05-06T17:20:15.298Z,2.35
2018-05-06T17:22:42.964Z,0.98
2018-05-06T17:25:10.461Z,0.75
2018-05-06T17:27:38.026Z,1.20
2018-05-06T17:30:05.552Z,3.72
2018-05-06T17:32:33.109Z,2.55
2018-05-06T17:35:00.638Z,0.70
2018-05-06T17:37:28.190Z,1.50
2018-05-06T17:39:55.704Z,1.10
2018-05-06T17:42:23.298Z,1.42
2018-05-06T17:44:50.817Z,4.07
2018-05-06T17:47:18.365Z,1.95
2018-05-06T17:49:45.889Z,1.40
2018-05-06T17:52:13.422Z,2.78
2018-05-06T17:54:40.944Z,1.12
2018-05-06T17:57:08.877Z,3.95
2018-05-06T17:59:36.387Z,2.37
2018-05-06T18:02:03.919Z,0.85
2018-05-06T18:04:31.825Z,1.58
2018-05-06T18:06:59.380Z,0.80
2018-05-06T18:09:26.910Z,1.85
2018-05-06T18:11:54.513Z,1.02
2018-05-06T18:14:22.033Z,1.98
2018-05-06T18:16:49.613Z,2.50
2018-05-06T18:19:17.113Z,3.33
2018-05-06T18:21:44.665Z,3.15
2018-05-06T18:24:12.158Z,1.87
2018-05-06T18:26:39.710Z,3.55
2018-05-06T18:29:07.219Z,2.70
2018-05-06T18:31:34.754Z,1.27
2018-05-06T18:34:02.276Z,1.08
2018-05-06T18:36:29.833Z,0.40
2018-05-06T18:38:57.356Z,1.42
2018-05-06T18:41:24.901Z,2.47
2018-05-06T18:43:52.616Z,5.15
2018-05-06T18:46:20.123Z,1.73
2018-05-06T18:48:47.645Z,1.85
2018-05-06T18:51:15.161Z,0.60
2018-05-06T18:53:42.761Z,2.47
2018-05-06T18:56:10.273Z,0.70
2018-05-06T18:58:37.815Z,4.90
2018-05-06T19:01:05.823Z,3.05
2018-05-06T19:03:33.381Z,0.73
2018-05-06T19:06:00.888Z,0.70
2018-05-06T19:08:28.603Z,0.60
2018-05-06T19:10:56.126Z,1.10
2018-05-06T19:13:23.676Z,1.62
2018-05-06T19:15:51.373Z,1.00
2018-05-06T19:18:18.911Z,2.40
2018-05-06T19:20:46.492Z,1.10
2018-05-06T19:23:14.048Z,0.82
2018-05-06T19:25:41.586Z,1.62
2018-05-06T19:28:09.114Z,1.75
2018-05-06T19:30:37.220Z,2.60
2018-05-06T19:33:04.781Z,2.47
2018-05-06T19:35:32.301Z,3.53
2018-05-06T19:37:59.859Z,2.55
2018-05-06T19:40:27.362Z,1.12
2018-05-06T19:42:54.991Z,2.30
2018-05-06T19:45:22.665Z,1.87
2018-05-06T19:47:50.223Z,1.40
2018-05-06T19:50:17.750Z,1.25
2018-05-06T19:52:45.356Z,1.52
2018-05-06T19:55:12.870Z,3.58
2018-05-06T19:57:40.418Z,1.87
2018-05-06T20:00:08.314Z,1.45
2018-05-06T20:02:35.941Z,2.08
2018-05-06T20:05:03.458Z,1.42
2018-05-06T20:07:31.175Z,1.75
2018-05-06T20:09:58.726Z,4.72
2018-05-06T20:12:26.288Z,1.87
2018-05-06T20:14:54.151Z,3.22
2018-05-06T20:17:21.723Z,2.50
2018-05-06T20:19:49.264Z,3.15
2018-05-06T20:22:16.784Z,1.75
2018-05-06T20:24:44.417Z,2.40
2018-05-06T20:27:11.943Z,1.85
2018-05-06T20:29:39.476Z,1.95
2018-05-06T20:32:06.985Z,1.02
2018-05-06T20:34:34.596Z,2.80
2018-05-06T20:37:02.190Z,1.95
2018-05-06T20:39:29.745Z,0.90
2018-05-06T20:41:57.373Z,1.30
2018-05-06T20:44:24.926Z,1.87
2018-05-06T20:46:52.474Z,1.02
2018-05-06T20:49:20.014Z,1.10
2018-05-06T20:51:47.912Z,2.20
2018-05-06T20:54:15.685Z,1.27
2018-05-06T20:56:43.353Z,4.45
2018-05-06T20:59:10.869Z,1.12
2018-05-06T21:01:38.438Z,2.60
2018-05-06T21:04:06.084Z,0.75
2018-05-06T21:50:13.790Z,0.90
2018-05-06T21:52:41.742Z,1.27
2018-05-06T21:55:09.257Z,1.60
2018-05-06T21:57:36.818Z,1.02
2018-05-06T22:00:04.333Z,1.77
2018-05-06T22:02:31.835Z,1.33
2018-05-06T22:04:59.417Z,1.90
2018-05-06T22:07:27.006Z,1.23
2018-05-06T22:09:54.573Z,2.00
2018-05-06T22:12:22.233Z,0.70
2018-05-06T22:14:49.777Z,1.83
2018-05-06T22:17:17.456Z,3.07
2018-05-06T22:19:45.018Z,1.07
2018-05-06T22:22:12.699Z,1.67
2018-05-06T22:24:40.209Z,0.88
2018-05-06T22:27:07.754Z,0.70
2018-05-06T22:29:35.256Z,1.00
2018-05-06T22:32:02.851Z,2.72
2018-05-06T22:34:30.341Z,5.23
2018-05-06T22:36:57.896Z,1.10
2018-05-06T22:39:25.413Z,2.00
2018-05-06T22:41:52.937Z,1.50
2018-05-06T22:44:20.442Z,1.30
2018-05-06T22:46:48.397Z,2.45
2018-05-06T22:49:16.104Z,3.12
2018-05-06T22:51:43.652Z,0.97
2018-05-06T22:54:11.207Z,2.57
2018-05-06T22:56:38.739Z,2.87
2018-05-06T22:59:06.651Z,3.63
2018-05-06T23:01:34.163Z,2.03
2018-05-06T23:04:01.742Z,1.23
2018-05-06T23:06:29.308Z,1.53
2018-05-06T23:08:56.844Z,2.60
2018-05-06T23:11:24.365Z,2.00
2018-05-06T23:13:51.921Z,1.00
2018-05-06T23:16:19.967Z,2.80
2018-05-06T23:18:47.493Z,2.07
2018-05-06T23:21:15.048Z,0.90
2018-05-06T23:23:42.592Z,1.57
2018-05-06T23:26:10.193Z,0.83
2018-05-06T23:28:44.630Z,1.57
2018-05-06T23:31:12.221Z,0.67
2018-05-06T23:33:39.768Z,1.50
2018-05-06T23:36:07.277Z,4.77
2018-05-06T23:38:34.793Z,5.70
2018-05-06T23:41:02.324Z,0.90
2018-05-06T23:43:30.223Z,2.33
2018-05-06T23:45:57.780Z,0.80
2018-05-06T23:48:25.441Z,1.53
2018-05-06T23:50:53.097Z,2.47
2018-05-06T23:53:20.741Z,1.40
2018-05-06T23:55:48.331Z,1.10
2018-05-06T23:58:15.875Z,1.90
